Time;durP1;ratioP1;P1;durP2;ratioP2;P2;SDS_P1;SDS_P2;PMS_P1;PMS_P2;Temp;Humidity;BMP_temperature;BMP_pressure;BME280_temperature;BME280_humidity;BME280_pressure;Samples;Min_cycle;Max_cycle;Signal;HPM_P1;HPM_P2
2023/08/20 00:01:55;;;;;;;0.10;0.10;;;;;;;21.79;59.82;102120.72;5033297;28;20021;-79
2023/08/20 00:04:25;;;;;;;0.10;0.10;;;;;;;21.81;59.94;102121.53;5028069;28;20159;-80
2023/08/20 00:06:51;;;;;;;0.10;0.10;;;;;;;21.83;59.89;102119.63;5031483;28;20094;-79
2023/08/20 00:09:17;;;;;;;0.10;0.10;;;;;;;21.88;59.80;102127.50;5032272;28;20037;-79
2023/08/20 00:11:44;;;;;;;0.10;0.10;;;;;;;21.91;59.57;102125.53;5046006;28;20033;-79
2023/08/20 00:14:17;;;;;;;0.10;0.10;;;;;;;21.98;59.54;102139.59;5054601;28;20002;-79
2023/08/20 00:16:44;;;;;;;0.10;0.10;;;;;;;21.94;59.44;102130.81;5055333;28;20088;-79
2023/08/20 00:19:11;;;;;;;0.10;0.10;;;;;;;21.96;59.39;102134.28;5050895;28;20035;-79
2023/08/20 00:21:42;;;;;;;0.10;0.10;;;;;;;22.00;59.42;102132.31;5054196;28;20041;-77
2023/08/20 00:24:09;;;;;;;0.10;0.10;;;;;;;22.00;59.52;102135.00;5053841;28;20025;-81
2023/08/20 00:26:35;;;;;;;0.10;0.10;;;;;;;21.98;59.71;102129.69;5039994;28;20047;-79
2023/08/20 00:29:01;;;;;;;3.72;1.38;;;;;;;21.99;59.35;102125.16;5038896;28;20029;-80
2023/08/20 00:31:27;;;;;;;0.10;0.10;;;;;;;21.95;59.42;102129.81;5035987;28;20029;-80
2023/08/20 00:33:53;;;;;;;0.10;0.10;;;;;;;21.90;59.62;102128.31;5036415;28;20386;-80
2023/08/20 00:36:19;;;;;;;0.10;0.10;;;;;;;21.85;60.01;102133.06;5036512;28;20025;-80
2023/08/20 00:38:45;;;;;;;0.05;0.05;;;;;;;21.83;59.61;102141.19;5032942;28;20033;-81
2023/08/20 00:41:11;;;;;;;0.00;0.00;;;;;;;21.82;59.95;102155.66;5035469;28;20033;-80
2023/08/20 00:43:37;;;;;;;0.00;0.00;;;;;;;21.79;59.96;102148.59;5031860;28;20065;-81
2023/08/20 00:46:04;;;;;;;0.10;0.10;;;;;;;21.77;60.08;102163.97;5033798;28;20029;-80
2023/08/20 00:48:30;;;;;;;0.10;0.10;;;;;;;21.77;60.33;102171.16;5036998;28;20056;-80
2023/08/20 00:50:57;;;;;;;0.10;0.10;;;;;;;21.75;60.22;102175.78;5032863;28;20041;-81
2023/08/20 00:53:23;;;;;;;0.10;0.10;;;;;;;21.75;60.18;102186.56;5032896;28;20025;-78
2023/08/20 00:55:49;;;;;;;0.90;0.90;;;;;;;21.74;60.23;102182.09;5031195;28;20046;-80
2023/08/20 00:58:15;;;;;;;0.10;0.10;;;;;;;21.74;60.22;102184.81;5027745;28;20037;-79
2023/08/20 01:00:42;;;;;;;0.00;0.00;;;;;;;21.74;60.13;102184.81;5032472;28;20039;-80
2023/08/20 01:03:08;;;;;;;0.13;0.13;;;;;;;21.74;60.05;102177.56;5035038;28;20022;-80
2023/08/20 01:05:40;;;;;;;0.10;0.10;;;;;;;21.75;60.15;102176.63;5034255;28;20030;-80
2023/08/20 01:08:23;;;;;;;0.30;0.30;;;;;;;21.74;59.94;102179.41;5036213;28;20042;-80
2023/08/20 01:13:25;;;;;;;0.10;0.10;;;;;;;21.61;60.19;102169.19;5091030;27;1871434;-80
2023/08/20 01:15:51;;;;;;;0.05;0.05;;;;;;;21.59;60.20;102162.97;5123637;27;20028;-80
2023/08/20 01:18:17;;;;;;;0.10;0.10;;;;;;;21.55;60.27;102164.03;5099106;28;20032;-81
2023/08/20 01:20:52;;;;;;;0.10;0.10;;;;;;;21.54;60.70;102177.59;5117927;28;20469;-81
2023/08/20 01:23:58;;;;;;;0.10;0.10;;;;;;;21.53;60.76;102179.41;5102668;28;20106;-81
2023/08/20 01:29:02;;;;;;;0.10;0.10;;;;;;;21.44;61.04;102187.91;5112651;27;1169229;-80
2023/08/20 01:31:28;;;;;;;0.10;0.10;;;;;;;21.44;61.19;102185.22;5134461;27;20095;-79
2023/08/20 01:33:55;;;;;;;0.35;0.35;;;;;;;21.44;61.26;102183.38;5133801;28;20031;-80
2023/08/20 01:36:21;;;;;;;0.10;0.10;;;;;;;21.45;61.29;102189.66;5114224;27;20084;-80
2023/08/20 01:38:51;;;;;;;0.10;0.10;;;;;;;21.45;61.25;102184.28;5109779;28;20031;-80
2023/08/20 01:41:17;;;;;;;0.10;0.10;;;;;;;21.42;61.25;102185.28;5100927;28;20035;-80
2023/08/20 01:43:43;;;;;;;0.30;0.30;;;;;;;21.37;61.43;102191.81;5110842;28;20073;-80
2023/08/20 01:46:09;;;;;;;0.10;0.10;;;;;;;21.37;61.15;102191.81;5105186;28;20055;-80
2023/08/20 01:48:36;;;;;;;0.00;0.00;;;;;;;21.28;61.52;102194.00;5111053;28;20473;-81
2023/08/20 01:51:02;;;;;;;0.10;0.10;;;;;;;21.23;61.38;102195.13;5104156;28;20059;-80
2023/08/20 01:53:28;;;;;;;0.10;0.10;;;;;;;21.17;61.66;102196.25;5103735;28;20036;-80
2023/08/20 01:55:54;;;;;;;0.10;0.10;;;;;;;21.10;61.72;102195.66;5111112;28;20470;-79
2023/08/20 01:58:20;;;;;;;0.10;0.10;;;;;;;21.05;61.78;102191.38;5107976;28;20040;-79
2023/08/20 02:00:47;;;;;;;0.10;0.10;;;;;;;20.98;62.14;102186.25;5107902;28;20043;-79
2023/08/20 02:03:13;;;;;;;0.10;0.10;;;;;;;20.93;62.16;102177.50;5109878;28;20024;-80
2023/08/20 02:05:39;;;;;;;0.10;0.10;;;;;;;20.87;62.13;102187.69;5106285;28;20058;-80
2023/08/20 02:08:05;;;;;;;0.10;0.10;;;;;;;20.81;62.25;102188.78;5097180;28;20452;-81
2023/08/20 02:10:32;;;;;;;0.10;0.10;;;;;;;20.76;62.43;102190.81;5110693;28;20031;-80
2023/08/20 02:12:58;;;;;;;0.10;0.10;;;;;;;20.72;62.62;102186.50;5110451;28;20482;-79
2023/08/20 02:15:24;;;;;;;0.10;0.10;;;;;;;20.66;62.74;102182.19;5108320;28;20094;-80
2023/08/20 02:17:50;;;;;;;0.10;0.10;;;;;;;20.59;63.02;102173.50;5113067;28;20028;-80
2023/08/20 02:20:16;;;;;;;0.10;0.10;;;;;;;20.55;63.20;102176.38;5101666;28;20032;-80
2023/08/20 02:22:42;;;;;;;0.10;0.10;;;;;;;20.50;63.45;102173.91;5112702;28;20418;-80
2023/08/20 02:25:09;;;;;;;0.10;0.10;;;;;;;20.45;63.46;102173.19;5112195;28;20032;-79
2023/08/20 02:27:35;;;;;;;0.10;0.10;;;;;;;20.40;63.44;102183.25;5108718;28;20460;-80
2023/08/20 02:30:01;;;;;;;0.10;0.10;;;;;;;20.35;63.62;102187.03;5112457;28;20072;-79
2023/08/20 02:32:27;;;;;;;0.43;0.43;;;;;;;20.30;63.74;102180.94;5112872;28;20024;-79
2023/08/20 02:34:53;;;;;;;0.10;0.10;;;;;;;20.27;63.33;102180.19;5110914;28;20115;-78
2023/08/20 02:37:20;;;;;;;0.10;0.10;;;;;;;20.22;63.77;102191.13;5112111;28;20065;-80
2023/08/20 02:39:46;;;;;;;0.10;0.10;;;;;;;20.20;64.04;102182.25;5102330;28;20028;-80
2023/08/20 02:42:12;;;;;;;0.10;0.10;;;;;;;20.16;63.62;102183.28;5095341;28;20039;-80
2023/08/20 02:44:38;;;;;;;0.00;0.00;;;;;;;20.14;63.86;102188.75;5096720;28;20110;-80
2023/08/20 02:47:04;;;;;;;0.10;0.10;;;;;;;20.14;63.95;102187.88;5091147;28;20035;-79
2023/08/20 02:49:30;;;;;;;0.10;0.10;;;;;;;20.14;64.25;102187.88;5089950;28;20106;-79
2023/08/20 02:51:56;;;;;;;0.38;0.38;;;;;;;20.13;64.50;102178.91;5098466;28;20028;-79
2023/08/20 02:54:22;;;;;;;0.10;0.10;;;;;;;20.14;64.36;102190.56;5095428;28;20502;-79
2023/08/20 02:56:48;;;;;;;0.10;0.10;;;;;;;20.14;64.15;102193.25;5097219;28;20020;-79
2023/08/20 02:59:15;;;;;;;0.00;0.00;;;;;;;20.14;64.15;102193.25;5095616;28;20028;-80
2023/08/20 03:01:41;;;;;;;0.10;0.10;;;;;;;20.16;63.97;102196.75;5095166;28;20048;-80
2023/08/20 03:04:07;;;;;;;0.10;0.10;;;;;;;20.20;64.40;102203.78;5089380;28;20115;-80
2023/08/20 03:06:33;;;;;;;0.10;0.10;;;;;;;20.24;64.38;102199.13;5095790;28;20031;-80
2023/08/20 03:08:59;;;;;;;0.20;0.20;;;;;;;20.26;64.33;102200.88;5094197;28;20064;-79
2023/08/20 03:11:25;;;;;;;0.10;0.10;;;;;;;20.30;64.27;102205.19;5093135;28;20035;-80
2023/08/20 03:13:51;;;;;;;0.20;0.20;;;;;;;20.33;64.24;102210.41;5095461;28;20629;-80
2023/08/20 03:16:17;;;;;;;0.10;0.10;;;;;;;20.35;63.60;102208.56;5095103;28;20016;-80
2023/08/20 03:18:43;;;;;;;0.10;0.10;;;;;;;20.35;63.54;102207.69;5088344;28;20093;-80
2023/08/20 03:21:09;;;;;;;0.10;0.10;;;;;;;20.34;63.79;102209.50;5096747;28;20024;-80
2023/08/20 03:23:36;;;;;;;0.08;0.08;;;;;;;20.34;63.91;102211.31;5093869;28;20487;-78
2023/08/20 03:26:02;;;;;;;0.10;0.10;;;;;;;20.30;63.97;102210.56;5088629;28;20449;-79
2023/08/20 03:28:28;;;;;;;0.10;0.10;;;;;;;20.28;63.94;102206.19;5096896;28;20024;-80
2023/08/20 03:30:54;;;;;;;0.10;0.10;;;;;;;20.26;63.79;102213.41;5094974;28;20032;-78
2023/08/20 03:33:20;;;;;;;0.10;0.10;;;;;;;20.22;63.83;102209.97;5084691;28;20111;-80
2023/08/20 03:35:46;;;;;;;0.10;0.10;;;;;;;20.20;63.03;102203.78;5095142;28;20035;-80
2023/08/20 03:38:12;;;;;;;0.10;0.10;;;;;;;20.17;63.79;102203.91;5097966;28;20020;-80
2023/08/20 03:40:39;;;;;;;0.10;0.10;;;;;;;20.13;63.83;102205.81;5094123;28;20024;-80
2023/08/20 03:43:05;;;;;;;0.10;0.10;;;;;;;20.09;64.08;102216.75;5093092;28;20051;-80
2023/08/20 03:45:31;;;;;;;0.10;0.10;;;;;;;20.04;63.96;102212.44;5094159;28;20060;-80
2023/08/20 03:47:57;;;;;;;0.30;0.30;;;;;;;20.00;64.18;102213.50;5089213;28;20040;-80
2023/08/20 03:50:23;;;;;;;0.22;0.22;;;;;;;19.96;64.24;102225.31;5096285;28;20055;-80
2023/08/20 03:52:49;;;;;;;0.10;0.10;;;;;;;19.93;64.15;102217.34;5089652;28;20063;-80
2023/08/20 03:55:15;;;;;;;0.10;0.10;;;;;;;19.91;64.67;102223.72;5085923;28;20033;-80
2023/08/20 03:57:42;;;;;;;0.10;0.10;;;;;;;19.87;64.55;102212.19;5093182;28;20368;-80
2023/08/20 04:00:09;;;;;;;0.10;0.10;;;;;;;19.84;64.70;102209.63;5095181;28;20032;-78
2023/08/20 04:02:35;;;;;;;0.10;0.10;;;;;;;19.82;64.60;102206.09;5093271;28;20043;-80
2023/08/20 04:05:02;;;;;;;0.10;0.10;;;;;;;19.79;64.88;102215.16;5090437;28;20069;-79
2023/08/20 04:07:29;;;;;;;0.10;0.10;;;;;;;19.77;64.79;102214.31;5092057;28;20032;-80
2023/08/20 04:09:56;;;;;;;0.08;0.08;;;;;;;19.73;64.67;102215.38;5093308;28;20101;-80
2023/08/20 04:12:22;;;;;;;0.10;0.10;;;;;;;19.68;64.92;102220.91;5096068;28;20028;-80
2023/08/20 04:14:48;;;;;;;0.10;0.10;;;;;;;19.64;64.84;102227.34;5092355;28;20107;-80
2023/08/20 04:17:14;;;;;;;0.03;0.03;;;;;;;19.60;64.95;102231.09;5083656;28;20032;-79
2023/08/20 04:19:40;;;;;;;0.10;0.10;;;;;;;19.56;65.09;102229.41;5096319;28;20155;-79
2023/08/20 04:22:06;;;;;;;0.10;0.10;;;;;;;19.53;65.19;102240.28;5097184;28;20492;-79
2023/08/20 04:24:33;;;;;;;0.20;0.20;;;;;;;19.49;65.20;102241.31;5099773;28;20083;-78
2023/08/20 04:26:59;;;;;;;0.00;0.00;;;;;;;19.46;65.19;102244.13;5099886;28;20042;-80
2023/08/20 04:29:27;;;;;;;0.10;0.10;;;;;;;19.43;65.30;102252.28;5095222;28;20024;-80
2023/08/20 04:31:53;;;;;;;0.10;0.10;;;;;;;19.39;65.09;102254.22;5095540;28;20032;-79
2023/08/20 04:34:19;;;;;;;0.10;0.10;;;;;;;19.38;65.40;102263.22;5083284;28;20040;-79
2023/08/20 04:36:45;;;;;;;0.10;0.10;;;;;;;19.35;65.29;102263.31;5095287;28;20032;-80
2023/08/20 04:39:11;;;;;;;0.10;0.10;;;;;;;19.31;65.55;102259.84;5097168;28;20028;-81
2023/08/20 04:41:37;;;;;;;0.10;0.10;;;;;;;19.29;65.50;102264.41;5100494;28;20024;-80
2023/08/20 04:44:03;;;;;;;0.10;0.10;;;;;;;19.27;65.22;102266.25;5098810;28;20047;-80
2023/08/20 04:46:29;;;;;;;0.10;0.10;;;;;;;19.26;65.20;102269.88;5094606;28;20054;-80
2023/08/20 04:48:55;;;;;;;0.10;0.10;;;;;;;19.25;65.38;102265.41;5085727;28;20040;-80
2023/08/20 04:51:22;;;;;;;0.10;0.10;;;;;;;19.25;65.97;102268.09;5088398;28;20046;-80
2023/08/20 04:53:48;;;;;;;0.10;0.10;;;;;;;19.23;65.91;102268.16;5086667;28;20060;-80
2023/08/20 04:56:14;;;;;;;0.17;0.17;;;;;;;19.23;65.85;102264.63;5092944;28;20475;-80
2023/08/20 04:58:40;;;;;;;0.10;0.10;;;;;;;19.22;65.61;102270.91;5094490;28;20062;-80
2023/08/20 05:01:06;;;;;;;0.10;0.10;;;;;;;19.21;65.83;102272.69;5091080;28;20043;-80
2023/08/20 05:03:32;;;;;;;0.08;0.08;;;;;;;19.21;65.82;102263.78;5092288;28;20032;-80
2023/08/20 05:05:58;;;;;;;0.10;0.10;;;;;;;19.23;65.68;102264.63;5084891;28;20052;-80
2023/08/20 05:08:24;;;;;;;0.10;0.10;;;;;;;19.23;65.92;102270.00;5094579;28;20028;-80
2023/08/20 05:10:51;;;;;;;0.10;0.10;;;;;;;19.23;66.04;102270.84;5092014;28;20028;-80
2023/08/20 05:13:17;;;;;;;0.10;0.10;;;;;;;19.24;66.12;102272.63;5095210;28;20059;-80
2023/08/20 05:15:45;;;;;;;0.03;0.03;;;;;;;19.24;65.86;102271.75;5092145;28;20445;-78
2023/08/20 05:18:12;;;;;;;0.00;0.00;;;;;;;19.27;66.17;102273.44;5093063;28;20035;-80
2023/08/20 05:20:40;;;;;;;0.10;0.10;;;;;;;19.30;66.23;102270.66;5092332;28;20028;-80
2023/08/20 05:23:06;;;;;;;0.10;0.10;;;;;;;19.29;66.13;102269.78;5087312;28;20059;-80
2023/08/20 05:25:33;;;;;;;0.10;0.10;;;;;;;19.30;66.18;102270.66;5094331;28;20054;-80
2023/08/20 05:28:01;;;;;;;0.10;0.10;;;;;;;19.31;66.11;102270.59;5093876;28;20136;-80
2023/08/20 05:30:27;;;;;;;0.05;0.05;;;;;;;19.34;66.28;102272.28;5095187;28;20044;-80
2023/08/20 05:32:53;;;;;;;0.05;0.05;;;;;;;19.34;66.22;102278.56;5084461;28;20043;-80
2023/08/20 05:35:19;;;;;;;0.10;0.10;;;;;;;19.37;66.13;102277.56;5087445;28;20051;-79
2023/08/20 05:37:45;;;;;;;0.10;0.10;;;;;;;19.38;66.23;102280.19;5095068;28;20024;-79
2023/08/20 05:40:11;;;;;;;0.00;0.00;;;;;;;19.40;66.11;102278.34;5091880;28;20029;-79
2023/08/20 05:42:37;;;;;;;0.10;0.10;;;;;;;19.44;66.46;102278.22;5094601;28;20024;-79
2023/08/20 05:45:03;;;;;;;0.00;0.00;;;;;;;19.46;66.69;102277.25;5092507;28;20036;-79
2023/08/20 05:47:29;;;;;;;0.10;0.10;;;;;;;19.50;66.80;102278.03;5093331;28;20041;-79
2023/08/20 05:49:56;;;;;;;0.10;0.10;;;;;;;19.51;66.59;102269.03;5093752;28;20046;-79
2023/08/20 05:52:22;;;;;;;0.10;0.10;;;;;;;19.52;66.75;102273.47;5093493;28;20078;-79
2023/08/20 05:54:48;;;;;;;0.10;0.10;;;;;;;19.54;66.68;102267.13;5085677;28;20031;-79
2023/08/20 05:57:14;;;;;;;0.10;0.10;;;;;;;19.56;67.11;102262.56;5094993;28;20032;-79
2023/08/20 05:59:40;;;;;;;0.10;0.10;;;;;;;19.60;67.06;102278.59;5089534;28;20028;-79
2023/08/20 06:02:06;;;;;;;0.10;0.10;;;;;;;19.62;66.82;102274.03;5085126;28;20032;-78
2023/08/20 06:04:32;;;;;;;0.10;0.10;;;;;;;19.64;67.02;102270.34;5080875;28;20028;-79
2023/08/20 06:06:58;;;;;;;0.10;0.10;;;;;;;19.69;67.47;102281.81;5093112;28;20032;-79
2023/08/20 06:09:24;;;;;;;0.10;0.10;;;;;;;19.72;68.13;102283.53;5094777;28;20028;-78
2023/08/20 06:11:51;;;;;;;0.00;0.00;;;;;;;19.77;67.84;102280.69;5088313;28;20103;-79
2023/08/20 06:14:17;;;;;;;0.10;0.10;;;;;;;19.82;67.49;102279.56;5094978;28;20403;-79
2023/08/20 06:16:44;;;;;;;0.08;0.08;;;;;;;19.87;67.53;102277.63;5096079;28;20035;-80
2023/08/20 06:19:10;;;;;;;0.20;0.20;;;;;;;19.92;68.44;102285.53;5096395;28;20093;-79
2023/08/20 06:21:36;;;;;;;0.10;0.10;;;;;;;19.98;67.93;102273.69;5097672;28;20097;-79
2023/08/20 06:24:03;;;;;;;0.10;0.10;;;;;;;20.04;67.10;102274.31;5099346;28;20043;-79
2023/08/20 06:26:29;;;;;;;0.00;0.00;;;;;;;20.10;67.23;102275.00;5091643;28;20020;-79
2023/08/20 06:28:55;;;;;;;0.20;0.20;;;;;;;20.17;67.82;102276.53;5099353;28;20048;-78
2023/08/20 06:31:21;;;;;;;0.10;0.10;;;;;;;20.19;68.41;102274.69;5089530;28;20032;-79
2023/08/20 06:33:47;;;;;;;0.15;0.15;;;;;;;20.25;67.11;102277.16;5092921;28;20028;-79
2023/08/20 06:36:13;;;;;;;0.52;0.52;;;;;;;20.31;67.16;102279.59;5098169;28;20027;-79
2023/08/20 06:38:39;;;;;;;0.10;0.10;;;;;;;20.36;67.92;102280.31;5096797;28;20022;-77
2023/08/20 06:41:06;;;;;;;0.10;0.10;;;;;;;20.43;67.26;102280.94;5095999;28;20084;-77
2023/08/20 06:43:32;;;;;;;0.10;0.10;;;;;;;20.48;67.71;102273.53;5098326;28;20024;-79
2023/08/20 06:45:58;;;;;;;0.10;0.10;;;;;;;20.58;67.75;102278.59;5093007;28;20058;-79
2023/08/20 06:48:24;;;;;;;0.10;0.10;;;;;;;20.64;67.89;102278.34;5096225;28;20151;-79
2023/08/20 06:50:51;;;;;;;0.20;0.20;;;;;;;20.67;66.72;102271.03;5097534;28;20036;-79
2023/08/20 06:53:17;;;;;;;0.10;0.10;;;;;;;20.74;67.69;102279.75;5096293;28;20483;-78
2023/08/20 06:55:43;;;;;;;0.10;0.10;;;;;;;20.81;67.40;102278.59;5094634;28;20028;-78
2023/08/20 06:58:09;;;;;;;0.05;0.05;;;;;;;20.88;68.04;102281.88;5098745;28;20047;-79
2023/08/20 07:00:35;;;;;;;0.10;0.10;;;;;;;20.92;68.11;102288.94;5088762;28;20122;-79
2023/08/20 07:03:03;;;;;;;0.15;0.15;;;;;;;20.98;67.00;102288.66;5088752;28;20506;-77
2023/08/20 07:05:29;;;;;;;0.10;0.10;;;;;;;21.04;66.98;102292.06;5085989;28;20513;-77
2023/08/20 07:07:55;;;;;;;0.10;0.10;;;;;;;21.10;67.04;102291.81;5098943;28;20048;-78
2023/08/20 07:10:21;;;;;;;0.20;0.20;;;;;;;21.15;66.41;102298.75;5098964;28;20036;-76
2023/08/20 07:12:47;;;;;;;0.15;0.15;;;;;;;21.22;66.62;102294.00;5091685;28;20078;-78
2023/08/20 07:15:13;;;;;;;0.00;0.00;;;;;;;21.25;67.13;102299.25;5103402;28;20124;-78
2023/08/20 07:17:39;;;;;;;0.10;0.10;;;;;;;21.32;66.78;102300.75;5099839;28;20507;-77
2023/08/20 07:20:06;;;;;;;0.10;0.10;;;;;;;21.41;66.50;102310.25;5102946;28;20032;-77
2023/08/20 07:22:32;;;;;;;0.00;0.00;;;;;;;21.45;67.00;102309.16;5097927;28;20047;-78
2023/08/20 07:24:58;;;;;;;0.10;0.10;;;;;;;21.52;66.41;102309.81;5096355;28;20039;-79
2023/08/20 07:27:24;;;;;;;0.10;0.10;;;;;;;21.56;65.80;102310.56;5103398;28;20048;-78
2023/08/20 07:29:50;;;;;;;0.10;0.10;;;;;;;21.61;66.13;102312.13;5093957;28;20032;-79
2023/08/20 07:32:16;;;;;;;0.00;0.00;;;;;;;21.69;66.10;102310.91;5096651;28;20021;-78
2023/08/20 07:34:42;;;;;;;0.40;0.40;;;;;;;21.76;65.99;102312.41;5088504;28;20036;-76
2023/08/20 07:37:08;;;;;;;0.05;0.05;;;;;;;21.76;65.00;102313.28;5089867;28;20051;-79
2023/08/20 07:39:34;;;;;;;0.00;0.00;;;;;;;21.88;64.77;102321.75;5088042;28;20584;-78
2023/08/20 07:42:00;;;;;;;0.03;0.03;;;;;;;21.96;64.69;102320.47;5098481;28;20028;-78
2023/08/20 07:44:28;;;;;;;2.63;1.58;;;;;;;22.00;64.45;102320.34;5091976;28;20161;-78
2023/08/20 07:46:54;;;;;;;0.00;0.00;;;;;;;22.12;64.30;102328.78;5089946;28;20043;-77
2023/08/20 07:49:20;;;;;;;0.10;0.10;;;;;;;22.17;64.00;102323.16;5095993;28;20034;-79
2023/08/20 07:51:46;;;;;;;0.10;0.10;;;;;;;22.25;63.88;102326.38;5098063;28;20036;-78
2023/08/20 07:54:12;;;;;;;0.10;0.10;;;;;;;22.32;63.41;102328.78;5094488;28;20514;-78
2023/08/20 07:56:38;;;;;;;1.02;0.95;;;;;;;22.39;63.42;102330.31;5095869;28;20028;-78
2023/08/20 07:59:04;;;;;;;0.73;0.73;;;;;;;22.47;62.72;102328.13;5098544;28;20040;-77
2023/08/20 08:01:30;;;;;;;1.55;1.17;;;;;;;22.49;62.07;102337.00;5088837;28;20040;-78
2023/08/20 08:03:56;;;;;;;0.10;0.10;;;;;;;22.59;62.11;102329.34;5088520;28;20040;-80
2023/08/20 08:06:23;;;;;;;0.10;0.10;;;;;;;22.67;61.68;102329.88;5094830;28;20044;-79
2023/08/20 08:08:49;;;;;;;0.10;0.10;;;;;;;22.72;61.00;102335.06;5098496;28;20020;-80
2023/08/20 08:11:15;;;;;;;0.10;0.10;;;;;;;22.78;60.80;102329.38;5098101;28;20091;-80
2023/08/20 08:13:41;;;;;;;0.10;0.10;;;;;;;22.87;60.92;102328.91;5093257;28;20028;-80
2023/08/20 08:16:08;;;;;;;0.20;0.20;;;;;;;22.97;60.75;102329.34;5093124;28;20062;-79
2023/08/20 08:18:34;;;;;;;0.10;0.10;;;;;;;22.92;58.85;102336.81;5093859;28;20050;-80
2023/08/20 08:21:00;;;;;;;4.15;1.15;;;;;;;23.08;59.18;102334.25;5090834;28;20058;-80
2023/08/20 08:23:26;;;;;;;0.20;0.20;;;;;;;23.10;56.70;102335.03;5094883;28;20024;-79
2023/08/20 08:25:52;;;;;;;0.10;0.10;;;;;;;23.18;57.58;102332.84;5096075;28;20083;-80
2023/08/20 08:28:18;;;;;;;0.00;0.00;;;;;;;23.27;56.56;102343.19;5092922;28;20035;-80
2023/08/20 08:30:44;;;;;;;0.00;0.00;;;;;;;23.33;56.11;102341.13;5097331;28;20064;-80
2023/08/20 08:33:10;;;;;;;0.10;0.10;;;;;;;23.43;55.86;102342.44;5092246;28;20036;-80
2023/08/20 08:35:36;;;;;;;2.40;1.48;;;;;;;23.50;55.69;102333.06;5094335;28;20040;-80
2023/08/20 08:38:03;;;;;;;0.10;0.10;;;;;;;23.52;55.14;102339.25;5097796;28;20487;-80
2023/08/20 08:40:30;;;;;;;0.10;0.10;;;;;;;23.58;55.49;102336.22;5090387;28;20057;-80
2023/08/20 08:42:56;;;;;;;0.10;0.10;;;;;;;23.68;55.05;102346.59;5094547;28;20027;-79
2023/08/20 08:45:26;;;;;;;0.30;0.30;;;;;;;23.75;55.06;102339.88;5092211;28;20025;-79
2023/08/20 08:47:55;;;;;;;0.17;0.17;;;;;;;23.84;55.14;102344.84;5091519;28;20028;-80
2023/08/20 08:50:21;;;;;;;0.00;0.00;;;;;;;23.95;55.77;102348.84;5092924;28;20108;-80
2023/08/20 08:52:50;;;;;;;0.63;0.63;;;;;;;24.03;55.18;102347.47;5084883;28;20043;-79
2023/08/20 08:55:16;;;;;;;0.10;0.10;;;;;;;24.10;54.05;102342.63;5093118;28;20029;-80
2023/08/20 08:57:42;;;;;;;0.10;0.10;;;;;;;24.18;53.99;102344.91;5090869;28;20052;-80
2023/08/20 09:00:09;;;;;;;3.72;1.75;;;;;;;24.22;53.07;102352.78;5087018;28;20110;-80
2023/08/20 09:02:35;;;;;;;0.10;0.10;;;;;;;24.30;53.19;102349.66;5090537;28;20036;-79
2023/08/20 09:05:01;;;;;;;0.00;0.00;;;;;;;24.33;52.95;102354.03;5092369;28;20070;-79
2023/08/20 09:07:27;;;;;;;0.10;0.10;;;;;;;24.45;53.24;102347.06;5084281;28;20096;-79
2023/08/20 09:10:00;;;;;;;0.00;0.00;;;;;;;24.52;51.84;102345.75;5089449;28;20035;-78
2023/08/20 09:12:27;;;;;;;0.10;0.10;;;;;;;24.57;52.07;102351.78;5082753;28;20543;-80
2023/08/20 09:14:57;;;;;;;0.03;0.03;;;;;;;24.72;53.04;102347.38;5085491;28;20073;-79
2023/08/20 09:17:27;;;;;;;0.00;0.00;;;;;;;24.83;52.71;102347.66;5079821;28;20046;-78
2023/08/20 09:19:58;;;;;;;0.10;0.10;;;;;;;24.92;51.31;102350.81;5084270;28;20027;-77
2023/08/20 09:22:26;;;;;;;0.10;0.10;;;;;;;25.03;52.24;102341.13;5082202;28;20044;-78
2023/08/20 09:24:55;;;;;;;0.10;0.10;;;;;;;25.07;50.58;102344.50;5084816;28;20038;-78
2023/08/20 09:27:21;;;;;;;0.10;0.10;;;;;;;25.17;50.55;102348.44;5080256;28;20042;-80
2023/08/20 09:29:50;;;;;;;0.10;0.10;;;;;;;25.31;51.49;102341.31;5082975;28;20110;-78
2023/08/20 09:32:25;;;;;;;0.20;0.20;;;;;;;25.43;50.69;102340.63;5081273;28;20055;-78
2023/08/20 09:34:52;;;;;;;0.08;0.08;;;;;;;25.47;51.25;102344.91;5078788;28;20035;-79
2023/08/20 09:37:20;;;;;;;0.03;0.03;;;;;;;25.49;50.69;102340.25;5087544;28;20055;-78
2023/08/20 09:39:46;;;;;;;0.17;0.17;;;;;;;25.58;49.25;102337.97;5086406;28;20503;-78
2023/08/20 09:42:13;;;;;;;0.10;0.10;;;;;;;25.68;50.83;102339.16;5081519;28;20032;-80
2023/08/20 09:44:42;;;;;;;0.13;0.13;;;;;;;25.70;47.94;102337.22;5083161;28;20085;-79
2023/08/20 09:47:12;;;;;;;0.10;0.10;;;;;;;25.74;47.39;102349.63;5084091;28;20040;-78
2023/08/20 09:49:42;;;;;;;0.30;0.30;;;;;;;25.74;45.61;102354.19;5096007;28;20034;-78
2023/08/20 09:52:11;;;;;;;0.65;0.65;;;;;;;25.82;46.24;102347.34;5098972;28;20073;-80
2023/08/20 09:57:38;;;;;;;0.10;0.10;;;;;;;26.02;47.22;102353.38;5087801;27;20180;-79
2023/08/20 10:00:10;;;;;;;0.10;0.10;;;;;;;26.10;47.44;102348.38;5080956;28;20055;-81
2023/08/20 10:02:37;;;;;;;;;;;;;;;26.30;46.93;102354.41;5087182;28;20039;-78
2023/08/20 10:05:07;;;;;;;0.10;0.10;;;;;;;26.25;45.75;102354.69;5087793;28;20386;-79
2023/08/20 10:07:34;;;;;;;0.10;0.10;;;;;;;26.28;44.41;102348.19;5077429;28;20028;-81
2023/08/20 10:10:03;;;;;;;0.95;0.95;;;;;;;26.28;45.77;102353.63;5075646;28;20032;-83
2023/08/20 10:12:29;;;;;;;0.10;0.10;;;;;;;26.34;45.13;102353.22;5074948;28;20029;-82
2023/08/20 10:14:57;;;;;;;0.10;0.10;;;;;;;26.37;45.74;102358.47;5075142;28;20033;-82
2023/08/20 10:17:24;;;;;;;0.10;0.10;;;;;;;26.41;45.11;102353.72;5077513;28;20032;-84
2023/08/20 10:19:53;;;;;;;0.35;0.35;;;;;;;26.46;44.55;102359.75;5076989;28;20111;-82
2023/08/20 10:22:20;;;;;;;0.00;0.00;;;;;;;26.54;44.56;102343.78;5076850;28;20369;-84
2023/08/20 10:24:52;;;;;;;0.03;0.03;;;;;;;26.57;45.09;102342.75;5071409;28;20039;-81
2023/08/20 10:27:26;;;;;;;;;;;;;;;26.75;44.75;102346.16;5074454;28;20043;-83
2023/08/20 10:29:54;;;;;;;0.10;0.10;;;;;;;26.69;45.25;102336.50;5068632;28;19912;-82
2023/08/20 10:32:40;;;;;;;0.10;0.10;;;;;;;26.73;45.52;102346.22;5071447;28;20059;-81
2023/08/20 10:35:08;;;;;;;0.10;0.10;;;;;;;26.74;43.96;102341.69;5069579;28;20059;-82
2023/08/20 10:37:36;;;;;;;0.20;0.20;;;;;;;26.84;44.17;102340.09;5077012;28;20088;-82
2023/08/20 10:40:04;;;;;;;0.08;0.08;;;;;;;26.79;42.24;102340.41;5072658;28;20043;-82
2023/08/20 10:42:30;;;;;;;0.05;0.05;;;;;;;26.92;41.80;102337.75;5079587;28;20020;-82
2023/08/20 10:44:58;;;;;;;0.10;0.10;;;;;;;27.01;42.11;102341.72;5080542;28;20021;-81
2023/08/20 10:47:25;;;;;;;0.17;0.17;;;;;;;27.15;43.23;102338.06;5079878;28;20637;-82
2023/08/20 10:49:53;;;;;;;0.75;0.50;;;;;;;27.13;42.25;102337.31;5080559;28;20415;-81
2023/08/20 10:52:22;;;;;;;2.00;0.85;;;;;;;27.26;43.02;102335.47;5079735;28;20029;-80
2023/08/20 10:54:51;;;;;;;0.00;0.00;;;;;;;27.33;42.98;102335.97;5079135;28;20059;-81
2023/08/20 10:57:17;;;;;;;1.17;1.00;;;;;;;27.40;41.82;102341.88;5095337;28;20050;-81
2023/08/20 10:59:43;;;;;;;0.00;0.00;;;;;;;27.42;42.36;102337.22;5099868;28;20059;-81
2023/08/20 11:02:15;;;;;;;0.00;0.00;;;;;;;27.57;43.87;102343.44;5098426;28;20103;-82
2023/08/20 11:04:42;;;;;;;0.10;0.10;;;;;;;27.67;42.87;102333.66;5098494;28;20035;-81
2023/08/20 11:07:09;;;;;;;0.00;0.00;;;;;;;27.67;42.55;102341.84;5095697;28;20086;-80
2023/08/20 11:09:35;;;;;;;0.10;0.10;;;;;;;27.81;43.10;102334.56;5076446;28;20026;-80
2023/08/20 11:12:01;;;;;;;0.30;0.30;;;;;;;27.82;40.90;102336.31;5084469;28;20107;-81
2023/08/20 11:14:27;;;;;;;0.00;0.00;;;;;;;27.94;41.02;102335.44;5084161;28;20031;-82
2023/08/20 11:16:53;;;;;;;0.00;0.00;;;;;;;28.13;40.77;102339.63;5084887;28;20391;-83
2023/08/20 11:19:21;;;;;;;0.43;0.43;;;;;;;28.18;40.67;102332.00;5075991;28;20058;-82
2023/08/20 11:21:48;;;;;;;0.00;0.00;;;;;;;28.23;41.26;102340.69;5085091;28;20029;-83
2023/08/20 11:24:14;;;;;;;0.10;0.10;;;;;;;28.25;41.63;102333.25;5073898;28;20027;-85
2023/08/20 11:26:41;;;;;;;0.10;0.10;;;;;;;28.19;41.72;102331.88;5075246;28;20052;-85
2023/08/20 11:29:09;;;;;;;0.03;0.03;;;;;;;28.22;42.58;102326.19;5076733;28;20024;-86
2023/08/20 11:31:39;;;;;;;0.05;0.05;;;;;;;28.34;42.49;102331.75;5076544;28;20016;-85
2023/08/20 11:34:05;;;;;;;0.00;0.00;;;;;;;28.32;40.90;102331.00;5080635;28;20028;-85